Briefing drone pour Aix-les-bains

Rechercher une autre localisation

Conditions de vol :


Nous sommes le : Samedi 31 juillet 2021
Il est 21:52 UTC (23:52 LT)

Lever de soleil : 03:52 UTC (05:52 LT)
Coucher de soleil : 19:32 UTC (21:32 LT)

Météo

L'essentiel des conditions de vol

VIGILANCE MÉTÉO FRANCE - Savoie (73)
Vigilance Jaune : Pluie-inondation / Orages
METAR de LFLB
LFLB 312130Z AUTO 35001KT 9999 -RA FEW044/// OVC098/// ///CB 16/14 Q1013

Date d'émission: 31/07/2021
Heure d'émission: 21:30 UTC
Vent: 350° pour 1 KT (2 km/h)
Visibilité horizontale: > 10 km
Plafond :
- Peu de nuages à 4400ft (1341m)
- Couvert à 9800ft (2987m)
Température: 16 °C
Point de rosée: 14 °C
Humidité: 88%
Pression (QNH): 1013 hPa
Conditions: Faible pluie
TAF de LFLB
LFLB 311900Z 3119/0115 CNL= LFLS 311900Z 3119/0115 CNL

Conditions prévues :

Heure d'émission : Bulletin éffectué le 31 à 19:00 UTC
Prévision : Valide du 31 a 19:00 UTC au 01 a 15:00 UTC
Nuages : à 0ft (0 m)
à 0ft (0 m)
à 0ft (0 m)
à 0ft (0 m)
WEBCAM POUR AIX-LES-BAINS

Réglementation

Voler en sécurité

CARTES AERONAUTIQUE 1/500.000
CARTES VAC (LFLB)
SUP AIP




Chargement des AIP...
NOTAM (AIX-LES-BAINS + Terrain à proximité / FIR )




Chargement des NOTAMS...
CONTACT PREFECTURE 73


Avertissement : Les données mises à disposition sont indicatives. Oxygène Drone ne pourra être tenu responsable de dégâts causés aux biens et aux personnes.